Flight Track Log - Related Links

Times and Time Zones

All times are in EDT time to prevent confusion due to time zone crossing. See the N612CT flight status page for this flight to view local times or setup timezone preferences in your user account.

Time Position Orientation Groundspeed Altitude Reporting Facility
EDT Latitude Longitude Course Direction KTS MPH feet Rate Location/Type
Fri 06:14:00 PM 30.1507 -84.1949 151° Southeast  Level Estimated
Fri 06:15:00 PM 30.1097 -84.1690 151° Southeast  Level Estimated
Fri 06:16:00 PM 30.0687 -84.1431 151° Southeast  Level Estimated
Fri 06:17:00 PM 30.0277 -84.1172 151° Southeast  Level Estimated
Fri 06:18:00 PM 29.9867 -84.0914 151° Southeast  Level Estimated
Fri 06:19:00 PM 29.9456 -84.0656 151° Southeast  Level Estimated
Fri 06:20:00 PM 29.9046 -84.0398 151° Southeast  Level Estimated
Fri 06:21:00 PM 29.8635 -84.0140 151° Southeast  Level Estimated
Fri 06:21:06 PM 30.1814 -83.8536 151° Southeast 177 204 9,000  Level Jacksonville Center
Fri 06:22:00 PM 29.8225 -83.9882 151° Southeast  Level Estimated
Fri 06:22:06 PM 30.1525 -83.8125 129° Southeast 177 204 9,000  Level Jacksonville Center
Fri 06:23:00 PM 29.7814 -83.9625 151° Southeast  Level Estimated
Fri 06:23:06 PM 30.1217 -83.7692 129° Southeast 182 209 9,000  Level Jacksonville Center
Fri 06:24:00 PM 29.7404 -83.9368 151° Southeast  Level Estimated
Fri 06:24:06 PM 30.0906 -83.7256 129° Southeast 182 209 9,000  Level Jacksonville Center
Fri 06:25:00 PM 29.6993 -83.9110 151° Southeast  Level Estimated
Fri 06:25:06 PM 30.0594 -83.6797 128° Southeast 182 209 9,000  Level Jacksonville Center
Fri 06:26:06 PM 30.0264 -83.6386 133° Southeast 182 209 9,000  Level Jacksonville Center
Fri 06:27:06 PM 29.9972 -83.5953 128° Southeast 182 209 9,000  Level Jacksonville Center
Fri 06:28:06 PM 29.9664 -83.5519 129° Southeast 182 209 9,000  Level Jacksonville Center
Fri 06:29:06 PM 29.9353 -83.5111 131° Southeast 177 204 9,000  Level Jacksonville Center
Fri 06:30:06 PM 29.9061 -83.4678 128° Southeast 177 204 9,000  Level Jacksonville Center
Fri 06:31:06 PM 29.8728 -83.4267 133° Southeast 177 204 9,000  Level Jacksonville Center
Fri 06:32:06 PM 29.8439 -83.3833 128° Southeast 177 204 9,000  Level Jacksonville Center
Fri 06:33:06 PM 29.8106 -83.3378 130° Southeast 177 204 9,000  Level Jacksonville Center
Fri 06:34:06 PM 29.7794 -83.2947 130° Southeast 177 204 9,000  Level Jacksonville Center
Fri 06:35:06 PM 29.7461 -83.2539 133° Southeast 177 204 9,000  Level Jacksonville Center
Fri 06:36:06 PM 29.7192 -83.2131 127° Southeast 176 203 9,000  Level Jacksonville Center
Fri 06:36:45 PM 29.6961 -83.1842 133° Southeast 178 205 9,000  Level Jacksonville Center
Fri 06:37:06 PM 29.6858 -83.1675 125° Southeast 176 203 9,000  Level Jacksonville Center
Fri 06:37:28 PM 29.6733 -83.1508 131° Southeast 175 201 9,000  Level Jacksonville Center
Fri 06:38:06 PM 29.6567 -83.1267 128° Southeast 176 203 9,000  Level Jacksonville Center
Fri 06:38:29 PM 29.6381 -83.1075 138° Southeast 178 205 9,000  Level Jacksonville Center
Fri 06:39:06 PM 29.6256 -83.0836 121° Southeast 176 203 9,000  Level Jacksonville Center
Fri 06:39:42 PM 29.5983 -83.0525 135° Southeast 181 208 9,000  Level Jacksonville Center
Fri 06:40:06 PM 29.5900 -83.0406 129° Southeast 176 203 9,000  Level Jacksonville Center
Fri 06:40:37 PM 29.5608 -83.0264 157° South 172 198 9,000  Level Jacksonville Center
Fri 06:41:06 PM 29.5483 -83.0167 146° Southeast 176 203 9,000  Level Jacksonville Center
Fri 06:41:37 PM 29.5192 -83.0000 154° Southeast 178 205 9,000  Level Jacksonville Center
Fri 06:42:06 PM 29.5044 -82.9881 145° Southeast 176 203 9,000  Level Jacksonville Center
Fri 06:42:32 PM 29.4814 -82.9736 151° Southeast 176 203 9,000  Level Jacksonville Center
Fri 06:43:06 PM 29.4564 -82.9569 150° Southeast 182 209 9,000  Level Jacksonville Center
Fri 06:43:33 PM 29.4378 -82.9450 151° Southeast 174 200 9,000  Level Jacksonville Center
Fri 06:44:06 PM 29.4147 -82.9308 152° Southeast 177 204 9,000  Level Jacksonville Center
Fri 06:44:34 PM 29.3958 -82.9189 151° Southeast 174 200 9,000  Level Jacksonville Center
Fri 06:45:06 PM 29.3731 -82.9022 147° Southeast 177 204 9,000  Level Jacksonville Center
Fri 06:45:35 PM 29.3542 -82.8925 156° South 175 201 9,000  Level Jacksonville Center
Fri 06:46:06 PM 29.3311 -82.8758 148° Southeast 177 204 9,000  Level Jacksonville Center
Fri 06:46:42 PM 29.3042 -82.8592 152° Southeast 175 201 9,000  Level Jacksonville Center
Fri 06:47:43 PM 29.2622 -82.8306 149° Southeast 175 201 9,000  Level Jacksonville Center
Fri 06:48:50 PM 29.2142 -82.7997 151° Southeast 173 199 9,000  Level Jacksonville Center
Fri 06:49:33 PM 29.1831 -82.7831 155° Southeast 174 200 9,000  Level Jacksonville Center
Fri 06:50:52 PM 29.1308 -82.7475 149° Southeast 175 201 9,000  Level Jacksonville Center
Fri 06:51:46 PM 29.0931 -82.7214 149° Southeast 174 200 9,000  Level Jacksonville Center
Fri 06:52:54 PM 29.0431 -82.6883 150° Southeast 174 200 9,000  Level Jacksonville Center
Fri 06:54:01 PM 28.9969 -82.6600 152° Southeast 174 200 9,000  Level Jacksonville Center
Fri 06:55:01 PM 28.9511 -82.6317 152° Southeast 178 205 9,000  Level Jacksonville Center
Fri 06:55:44 PM 28.9217 -82.6128 151° Southeast 176 203 9,000  Level Jacksonville Center
Fri 06:56:39 PM 28.8819 -82.5844 148° Southeast 175 201 9,000  Level Jacksonville Center
Fri 06:58:05 PM 28.8214 -82.5489 153° Southeast 176 203 9,000  Level Jacksonville Center
Fri 07:00:15 PM 28.7333 -82.4833 147° Southeast 176 203 9,000  Level Tampa TRACON
Fri 07:01:09 PM 28.6833 -82.4667 164° South 177 204 9,000  Level Tampa TRACON
Fri 07:02:21 PM 28.6333 -82.4333 150° Southeast 176 203 9,000  Level Tampa TRACON
Fri 07:03:15 PM 28.6000 -82.4000 139° Southeast 176 203 9,000  Level Tampa TRACON
Fri 07:04:15 PM 28.5500 -82.3833 164° South 177 204 9,000  Level Tampa TRACON
Fri 07:05:09 PM 28.5167 -82.3500 139° Southeast 182 209 9,000  Level Tampa TRACON
Fri 07:06:15 PM 28.4667 -82.3167 150° Southeast 182 209 9,000  Level Tampa TRACON
Fri 07:07:15 PM 28.4333 -82.3000 156° South 180 207 9,000  Level Tampa TRACON
Fri 07:08:15 PM 28.3833 -82.2667 150° Southeast 182 209 9,000  Level Tampa TRACON
Fri 07:09:15 PM 28.3333 -82.2333 150° Southeast 179 206 9,000  Level Tampa TRACON
Fri 07:10:15 PM 28.3000 -82.2167 156° South 177 204 9,000  Level Tampa TRACON
Fri 07:11:10 PM 28.2500 -82.1833 150° Southeast 182 209 9,000  Level Tampa TRACON
Fri 07:12:10 PM 28.2167 -82.1500 139° Southeast 178 205 9,000  Level Tampa TRACON
Fri 07:13:10 PM 28.1667 -82.1333 164° South 181 208 9,000  Level Tampa TRACON
Fri 07:14:16 PM 28.1167 -82.1000 150° Southeast 182 209 9,000  Level Tampa TRACON
Fri 07:16:40 PM 28.0133 -82.0328 150° Southeast 165 190 9,000  Level Miami Center
Fri 07:17:40 PM 27.9706 -82.0050 150° Southeast 172 198 9,000  Level Miami Center
Fri 07:18:40 PM 27.9233 -81.9864 161° South 182 209 9,000  Level Miami Center
Fri 07:19:40 PM 27.8731 -81.9889 183° South 177 204 9,000  Level Miami Center
Fri 07:20:40 PM 27.8231 -81.9889 180° South 177 204 9,000  Level Miami Center
Fri 07:21:40 PM 27.7731 -81.9889 180° South 177 204 9,000  Level Miami Center
Fri 07:22:40 PM 27.7250 -81.9869 178° South 177 204 9,000  Level Miami Center
Fri 07:23:40 PM 27.6792 -81.9869 180° South 177 204 9,000  Level Miami Center
Fri 07:24:40 PM 27.6311 -81.9872 180° South 177 204 9,000  Level Miami Center
Fri 07:25:40 PM 27.5769 -81.9872 180° South 182 209 9,000  Level Miami Center
Fri 07:26:40 PM 27.5350 -81.9900 183° South 177 204 9,000  Level Miami Center
Fri 07:27:40 PM 27.4869 -81.9903 180° South 177 204 9,000  Level Miami Center
Fri 07:28:40 PM 27.4389 -81.9903 180° South 177 204 9,000  Level Miami Center
Fri 07:29:40 PM 27.3911 -81.9906 180° South 177 204 9,000 -50 Level Miami Center
Fri 07:30:40 PM 27.3431 -81.9908 180° South 177 204 8,900 -350 Descending Miami Center
Fri 07:31:40 PM 27.2908 -81.9931 182° South 182 209 8,300 -550 Descending Miami Center
Fri 07:32:40 PM 27.2386 -81.9931 180° South 187 215 7,800 -550 Descending Miami Center
Fri 07:33:40 PM 27.1822 -81.9906 178° South 197 227 7,200 -400 Descending Miami Center
Fri 07:34:40 PM 27.1300 -81.9906 180° South 197 227 7,000 -100 Descending Miami Center
Fri 07:35:40 PM 27.0819 -81.9933 183° South 192 221 7,000  Level Miami Center
Fri 07:36:40 PM 27.0386 -81.9819 167° South 181 208 7,000  Level Miami Center
Fri 07:37:40 PM 26.9847 -81.9703 169° South 176 203 7,000  Level Miami Center
Fri 07:38:40 PM 26.9372 -81.9589 168° South 182 209 7,000  Level Miami Center
Fri 07:40:00 PM 26.8924 -81.9764 166° South  Level FlightAware Approximate
Fri 07:47:00 PM 26.5636 -81.8826 167° South  Level FlightAware Approximate
Fri 07:48:00 PM 26.5163 -81.8707 167° South  Level FlightAware Approximate
Fri 07:49:00 PM 26.4690 -81.8589 167° South  Level FlightAware Approximate
Fri 07:50:00 PM 26.4218 -81.8465 165° South  Level FlightAware Approximate
Fri 07:51:00 PM 26.3751 -81.8320 165° South  Level FlightAware Approximate
Fri 07:52:00 PM 26.3284 -81.8177 165° South  Level FlightAware Approximate
Fri 07:53:00 PM 26.2816 -81.8033 165° South  Level FlightAware Approximate
Fri 07:54:00 PM 26.2349 -81.7889 165° South  Level FlightAware Approximate
Fri 07:55:00 PM 26.1878 -81.7761 167° South  Level FlightAware Approximate
Fri 07:56:00 PM 26.1500 -81.7667 167° South  Level FlightAware Approximate
Fri 07:57:00 PM 26.1524 -81.7756 167° South  Level Estimated
Fri 07:58:00 PM 26.1524 -81.7756 167° South  Level Estimated
Fri 07:59:00 PM 26.1524 -81.7756 167° South  Level Estimated
Fri 08:00:00 PM 26.1524 -81.7756 167° South  Level Estimated
Fri 08:01:00 PM 26.1524 -81.7756 167° South  Level Estimated
Fri 08:02:00 PM 26.1524 -81.7756 167° South  Level Estimated
Fri 08:03:00 PM 26.1524 -81.7756 167° South  Level Estimated
Fri 08:04:00 PM 26.1524 -81.7756 167° South  Level Estimated
Fri 08:05:00 PM 26.1524 -81.7756 167° South  Level Estimated
Fri 08:06:00 PM 26.1524 -81.7756 167° South  Level Estimated
Fri 08:07:00 PM 26.1524 -81.7756 167° South  Level Estimated
Fri 08:08:00 PM 26.1524 -81.7756 167° South  Level Estimated
Fri 08:09:00 PM 26.1524 -81.7756 167° South  Level Estimated
Fri 08:10:00 PM 26.1524 -81.7756 167° South  Level Estimated
Fri 08:11:00 PM 26.1524 -81.7756 167° South  Level Estimated
Fri 08:12:00 PM 26.1524 -81.7756 167° South  Level Estimated
Fri 08:13:00 PM 26.1524 -81.7756 167° South  Level Estimated

Login

Don't have an account? Register now (free) for customized features, flight alerts, and more!